ADDS METAR Data INFO
IDs: Format: Raw Decoded Include TAF

Data at: 0153 UTC 25 Feb 2018

METAR for:KHLX (Hillsville/Twin Cnty, VA, US)
Text:KHLX 250135Z AUTO 19007G15KT 10SM SCT100 18/12 A3006 RMK AO2 T01780119
Temperature: 17.8°C ( 64°F)
Dewpoint: 11.9°C ( 53°F) [RH = 68%]
Pressure (altimeter):30.06 inches Hg (1018.0 mb)
Winds:from the S (190 degrees) at 8 MPH (7 knots; 3.6 m/s) gusting to 17 MPH (15 knots; 7.7 m/s)
Visibility:10 or more sm (16+ km)
Ceiling:at least 12,000 feet AGL
Clouds: scattered clouds at 10000 feet AGL
QC Flag:automated observation with no human augmentation